Tecumseh, Indiana
Current Conditions -  °F | °C
As of 12:53 AM on Sunday 23 Nov 2014 (Local Time) from KHUF Reporting Station
Overcast Overcast  
Wind Chill: 44°   Ceiling: 4600
Heat Index: 48°   Visibility: 10mi
Dew Point: 42°   Wind: 8mph
Humidity: 80%   Direction: 140°SE
Pressure: 29.97"   Gusts: NA
Location:  39.5107°N, 87.4772°W
Report Text: KHUF 230553Z 14007KT 10SM OVC046 09/06 A2997 RMK AO2 RAE23 SLP148 P0001 60002 T00890056 10133 20089 58008
Loading
Personal Weather Stations






























Interactive Weather Map New forecast layout! Learn more

10-Day Weather Forecast

Advertisements
Track Severe Weather on mobile